createdAt,value
2022-12-16T00:01:28.044Z,71.83
2022-12-16T00:04:44.544Z,72.50
2022-12-16T00:08:01.189Z,74.45
2022-12-16T00:11:18.484Z,75.05
2022-12-16T00:14:34.847Z,73.90
2022-12-16T00:17:51.145Z,76.18
2022-12-16T00:21:08.965Z,75.50
2022-12-16T00:24:25.594Z,75.03
2022-12-16T00:27:41.724Z,76.68
2022-12-16T00:31:00.516Z,82.20
2022-12-16T00:34:16.749Z,84.85
2022-12-16T00:37:33.643Z,81.30
2022-12-16T00:40:49.955Z,77.58
2022-12-16T00:44:08.375Z,77.55
2022-12-16T00:47:24.630Z,79.78
2022-12-16T00:50:41.130Z,76.75
2022-12-16T00:53:57.229Z,76.58
2022-12-16T00:57:13.466Z,82.45
2022-12-16T01:00:30.781Z,78.88
2022-12-16T01:03:47.304Z,83.10
2022-12-16T01:07:03.661Z,80.05
2022-12-16T01:10:20.532Z,78.90
2022-12-16T01:13:37.361Z,75.00
2022-12-16T01:16:53.723Z,75.93
2022-12-16T01:20:12.072Z,78.08
2022-12-16T01:23:28.546Z,78.88
2022-12-16T01:26:44.999Z,78.53
2022-12-16T01:30:01.800Z,79.28
2022-12-16T01:33:19.949Z,84.67
2022-12-16T01:36:36.292Z,79.78
2022-12-16T01:39:52.552Z,78.63
2022-12-16T01:43:11.026Z,79.05
2022-12-16T01:46:31.539Z,78.13
2022-12-16T01:49:51.836Z,79.73
2022-12-16T01:53:12.064Z,80.43
2022-12-16T01:56:33.465Z,83.73
2022-12-16T01:59:52.807Z,79.75
2022-12-16T02:03:09.303Z,79.78
2022-12-16T02:06:26.348Z,81.60
2022-12-16T02:09:42.554Z,77.78
2022-12-16T02:13:02.613Z,78.98
2022-12-16T02:16:24.788Z,79.75
2022-12-16T02:20:19.818Z,76.20
2022-12-16T02:24:22.800Z,73.98
2022-12-16T02:28:02.544Z,78.05
2022-12-16T02:31:28.295Z,71.43
2022-12-16T02:34:50.741Z,69.68
2022-12-16T02:38:16.575Z,76.93
2022-12-16T02:41:38.344Z,76.80
2022-12-16T02:45:00.954Z,72.05
2022-12-16T02:48:17.721Z,71.80
2022-12-16T02:51:35.851Z,80.22
2022-12-16T02:54:53.089Z,73.55
2022-12-16T02:58:22.363Z,77.28
2022-12-16T03:01:42.692Z,72.78
2022-12-16T03:05:04.294Z,73.55
2022-12-16T03:08:27.080Z,78.55
2022-12-16T03:11:44.522Z,71.83
2022-12-16T03:15:03.195Z,72.13
2022-12-16T03:18:21.722Z,74.35
2022-12-16T03:21:42.646Z,71.77
2022-12-16T03:24:59.584Z,71.50
2022-12-16T03:28:24.662Z,71.58
2022-12-16T03:31:46.096Z,71.85
2022-12-16T03:35:05.593Z,63.68
2022-12-16T03:38:23.112Z,73.15
2022-12-16T03:41:41.077Z,69.23
2022-12-16T03:44:58.013Z,67.43
2022-12-16T03:48:20.020Z,63.90
2022-12-16T03:51:36.063Z,69.78
2022-12-16T03:54:52.074Z,66.40
2022-12-16T03:58:09.451Z,65.55
2022-12-16T04:01:26.551Z,68.50
2022-12-16T04:04:42.854Z,71.33
2022-12-16T04:08:02.146Z,63.75
2022-12-16T04:11:32.520Z,65.58
2022-12-16T04:15:02.721Z,61.85
2022-12-16T04:18:37.031Z,65.15
2022-12-16T04:22:07.261Z,64.35
2022-12-16T04:25:29.465Z,62.13
2022-12-16T04:28:45.636Z,55.05
2022-12-16T04:32:02.304Z,59.38
2022-12-16T04:35:29.248Z,56.33
2022-12-16T04:39:00.270Z,50.00
2022-12-16T04:42:30.823Z,53.85
2022-12-16T04:46:02.692Z,52.10
2022-12-16T04:49:33.268Z,55.53
2022-12-16T04:53:04.352Z,51.45
2022-12-16T04:56:33.698Z,45.60
2022-12-16T05:03:32.321Z,46.28
2022-12-16T05:07:03.029Z,44.25
2022-12-16T05:10:34.347Z,43.40
2022-12-16T05:14:04.367Z,43.35
2022-12-16T05:17:42.898Z,42.68
2022-12-16T05:21:13.444Z,40.40
2022-12-16T05:24:46.209Z,44.18
2022-12-16T05:28:16.737Z,41.65
2022-12-16T05:31:47.034Z,40.15
2022-12-16T05:35:17.367Z,39.03
2022-12-16T05:38:47.643Z,40.98
2022-12-16T05:42:18.259Z,40.03
2022-12-16T05:45:48.780Z,41.55
2022-12-16T05:49:18.806Z,47.10
2022-12-16T05:52:49.288Z,41.95
2022-12-16T05:56:20.039Z,42.10
2022-12-16T05:59:50.369Z,43.08
2022-12-16T06:03:20.489Z,41.90
2022-12-16T06:06:50.589Z,40.10
2022-12-16T06:10:21.279Z,37.80
2022-12-16T06:13:51.595Z,44.35
2022-12-16T06:17:21.814Z,41.68
2022-12-16T06:20:52.427Z,39.63
2022-12-16T06:24:37.341Z,41.30
2022-12-16T06:28:12.911Z,39.83
2022-12-16T06:31:43.763Z,40.35
2022-12-16T06:35:14.352Z,37.85
2022-12-16T06:38:44.592Z,37.05
2022-12-16T06:42:14.768Z,38.30
2022-12-16T06:45:45.105Z,37.25
2022-12-16T06:49:16.977Z,37.68
2022-12-16T06:52:48.211Z,36.80
2022-12-16T06:56:31.094Z,41.40
2022-12-16T07:00:02.489Z,35.90
2022-12-16T07:03:35.766Z,35.33
2022-12-16T07:07:05.315Z,34.18
2022-12-16T07:10:35.765Z,37.83
2022-12-16T07:14:06.556Z,39.53
2022-12-16T07:17:36.726Z,41.58
2022-12-16T07:21:06.871Z,41.73
2022-12-16T07:24:36.982Z,39.15
2022-12-16T07:28:15.684Z,37.25
2022-12-16T07:31:45.796Z,34.05
2022-12-16T07:35:15.935Z,30.80
2022-12-16T07:38:46.054Z,31.25
2022-12-16T07:42:16.340Z,29.93
2022-12-16T07:45:48.285Z,31.53
2022-12-16T07:49:18.575Z,27.45
2022-12-16T07:52:49.025Z,28.80
2022-12-16T07:56:19.399Z,31.20
2022-12-16T07:59:49.968Z,30.63
2022-12-16T08:03:20.480Z,31.43
2022-12-16T08:06:51.026Z,30.03
2022-12-16T08:10:23.837Z,25.80
2022-12-16T08:13:53.923Z,27.28
2022-12-16T08:17:24.806Z,27.98
2022-12-16T08:20:55.481Z,27.33
2022-12-16T08:24:25.941Z,27.10
2022-12-16T08:27:56.246Z,27.30
2022-12-16T08:31:26.782Z,24.35
2022-12-16T08:34:53.414Z,27.43
2022-12-16T08:38:24.313Z,25.30
2022-12-16T08:41:54.393Z,24.03
2022-12-16T08:45:26.839Z,24.53
2022-12-16T08:48:56.709Z,23.13
2022-12-16T08:52:28.802Z,25.78
2022-12-16T08:55:59.977Z,24.73
2022-12-16T08:59:30.405Z,54.38
2022-12-16T09:03:00.713Z,25.68
2022-12-16T09:06:35.570Z,29.30
2022-12-16T09:10:03.486Z,27.18
2022-12-16T09:13:36.405Z,25.13
2022-12-16T09:17:08.036Z,20.75
2022-12-16T09:20:39.663Z,25.70
2022-12-16T09:24:09.815Z,20.58
2022-12-16T09:27:39.951Z,21.10
2022-12-16T09:31:10.427Z,19.25
2022-12-16T09:34:40.827Z,23.38
2022-12-16T09:38:11.519Z,19.75
2022-12-16T09:42:05.570Z,20.15
2022-12-16T09:45:46.427Z,23.30
2022-12-16T09:49:21.177Z,347.40
2022-12-16T09:52:56.283Z,79.73
2022-12-16T09:56:33.972Z,42.15
2022-12-16T10:00:09.236Z,30.68
2022-12-16T10:03:45.644Z,26.30
2022-12-16T10:07:20.475Z,22.68
2022-12-16T10:10:55.829Z,29.98
2022-12-16T10:14:31.306Z,94.18
2022-12-16T10:18:05.403Z,28.85
2022-12-16T10:21:40.706Z,22.25
2022-12-16T10:25:23.250Z,21.88
2022-12-16T10:28:59.977Z,20.03
2022-12-16T10:32:41.569Z,26.23
2022-12-16T10:36:16.112Z,23.48
2022-12-16T10:39:53.423Z,25.18
2022-12-16T10:43:33.340Z,25.90
2022-12-16T10:47:04.982Z,25.35
2022-12-16T10:50:38.614Z,27.90
2022-12-16T10:54:17.109Z,28.68
2022-12-16T10:58:16.656Z,29.33
2022-12-16T11:01:50.280Z,28.38
2022-12-16T11:05:41.001Z,29.88
2022-12-16T11:09:11.604Z,26.83
2022-12-16T11:12:58.782Z,27.65
2022-12-16T11:16:40.235Z,31.40
2022-12-16T11:20:16.232Z,30.93
2022-12-16T11:23:52.394Z,32.03
2022-12-16T11:27:43.912Z,28.90
2022-12-16T11:31:39.601Z,30.58
2022-12-16T11:35:19.398Z,31.38
2022-12-16T11:39:18.684Z,29.98
2022-12-16T11:42:52.695Z,32.00
2022-12-16T11:46:31.206Z,29.33
2022-12-16T11:50:13.791Z,31.68
2022-12-16T11:57:58.744Z,32.03
2022-12-16T12:01:44.757Z,29.95
2022-12-16T12:05:12.098Z,32.75
2022-12-16T12:08:47.799Z,31.08
2022-12-16T12:12:24.406Z,31.58
2022-12-16T12:16:00.832Z,30.88
2022-12-16T12:19:39.316Z,29.83
2022-12-16T12:23:07.822Z,31.65
2022-12-16T12:26:43.456Z,33.75
2022-12-16T12:30:23.358Z,32.20
2022-12-16T12:33:59.160Z,33.65
2022-12-16T12:37:46.019Z,33.98
2022-12-16T12:41:21.569Z,31.53
2022-12-16T12:44:57.076Z,32.68
2022-12-16T12:48:32.888Z,32.23
2022-12-16T12:52:08.666Z,34.95
2022-12-16T12:55:46.748Z,34.68
2022-12-16T12:59:29.764Z,33.58
2022-12-16T13:03:07.832Z,32.88
2022-12-16T13:06:42.536Z,35.53
2022-12-16T13:10:34.768Z,36.20
2022-12-16T13:14:05.209Z,32.60
2022-12-16T13:17:35.663Z,37.23
2022-12-16T13:21:07.509Z,35.68
2022-12-16T13:25:04.802Z,39.60
2022-12-16T13:28:46.603Z,39.40
2022-12-16T13:32:41.201Z,36.65
2022-12-16T13:36:19.645Z,44.35
2022-12-16T13:39:51.901Z,41.55
2022-12-16T13:43:24.084Z,38.28
2022-12-16T13:47:09.824Z,40.25
2022-12-16T13:51:00.430Z,42.25
2022-12-16T13:54:31.679Z,40.15
2022-12-16T13:58:05.498Z,41.70
2022-12-16T14:01:40.528Z,67.05
2022-12-16T14:05:13.971Z,58.68
2022-12-16T14:08:46.167Z,46.03
2022-12-16T14:12:20.893Z,44.23
2022-12-16T14:15:58.081Z,47.43
2022-12-16T14:19:44.236Z,40.70
2022-12-16T14:23:47.430Z,40.60
2022-12-16T14:26:56.541Z,41.93
2022-12-16T14:30:41.010Z,39.85
2022-12-16T14:34:15.989Z,40.80
2022-12-16T14:37:55.098Z,37.00
2022-12-16T14:41:25.976Z,39.38
2022-12-16T14:44:56.591Z,39.70
2022-12-16T14:48:47.462Z,44.30
2022-12-16T14:52:27.042Z,40.53
2022-12-16T14:55:59.299Z,44.33
2022-12-16T14:59:37.401Z,45.25
2022-12-16T15:03:10.707Z,46.35
2022-12-16T15:06:48.915Z,46.35
2022-12-16T15:10:21.216Z,45.80
2022-12-16T15:13:52.575Z,46.35
2022-12-16T15:17:23.423Z,50.73
2022-12-16T15:20:57.778Z,50.58
2022-12-16T15:24:38.718Z,50.25
2022-12-16T15:28:16.771Z,55.08
2022-12-16T15:31:52.427Z,54.28
2022-12-16T15:35:25.653Z,56.93
2022-12-16T15:38:56.917Z,52.73
2022-12-16T15:42:53.642Z,58.20
2022-12-16T15:46:23.196Z,54.28
2022-12-16T15:50:03.517Z,56.38
2022-12-16T15:53:55.382Z,54.60
2022-12-16T15:57:40.802Z,60.23
2022-12-16T16:01:21.206Z,57.90
2022-12-16T16:04:55.071Z,60.95
2022-12-16T16:08:26.158Z,56.50
2022-12-16T16:11:56.439Z,61.53
2022-12-16T16:15:29.764Z,58.38
2022-12-16T16:19:00.574Z,54.98
2022-12-16T16:22:44.704Z,59.53
2022-12-16T16:26:15.012Z,54.50
2022-12-16T16:29:45.174Z,55.75
2022-12-16T16:33:15.055Z,56.40
2022-12-16T16:36:45.387Z,56.00
2022-12-16T16:40:28.649Z,59.05
2022-12-16T16:43:55.177Z,58.00
2022-12-16T16:47:27.016Z,58.18
2022-12-16T16:50:57.211Z,59.35
2022-12-16T16:54:27.722Z,57.38
2022-12-16T16:57:59.613Z,59.68
2022-12-16T17:01:34.847Z,58.68
2022-12-16T17:05:05.848Z,139.18
2022-12-16T17:08:36.267Z,68.65
2022-12-16T17:12:06.799Z,60.80
2022-12-16T17:15:45.022Z,58.05
2022-12-16T17:19:15.762Z,59.70
2022-12-16T17:22:49.269Z,56.00
2022-12-16T17:26:19.862Z,58.33
2022-12-16T17:29:50.535Z,66.98
2022-12-16T17:33:26.827Z,64.53
2022-12-16T17:36:56.918Z,66.55
2022-12-16T17:40:29.195Z,63.38
2022-12-16T17:43:59.911Z,62.93
2022-12-16T17:47:30.126Z,66.10
2022-12-16T17:51:09.081Z,68.38
2022-12-16T17:54:48.017Z,73.23
2022-12-16T17:58:18.969Z,73.33
2022-12-16T18:01:49.372Z,74.75
2022-12-16T18:05:19.910Z,81.03
2022-12-16T18:08:50.104Z,80.05
2022-12-16T18:12:21.853Z,82.33
2022-12-16T18:15:52.345Z,83.85
2022-12-16T18:19:23.099Z,80.10
2022-12-16T18:22:53.599Z,79.35
2022-12-16T18:26:27.174Z,83.23
2022-12-16T18:29:57.539Z,83.15
2022-12-16T18:33:28.267Z,84.33
2022-12-16T18:37:06.836Z,87.68
2022-12-16T18:40:37.101Z,87.00
2022-12-16T18:44:07.999Z,82.78
2022-12-16T18:47:43.599Z,85.78
2022-12-16T18:51:19.052Z,85.98
2022-12-16T18:54:49.353Z,87.58
2022-12-16T18:58:49.675Z,88.80
2022-12-16T19:01:51.579Z,83.80
2022-12-16T19:05:22.118Z,86.83
2022-12-16T19:08:54.554Z,88.20
2022-12-16T19:12:26.684Z,92.03
2022-12-16T19:15:58.554Z,209.18
2022-12-16T19:19:29.956Z,106.05
2022-12-16T19:23:00.786Z,99.65
2022-12-16T19:26:31.201Z,96.93
2022-12-16T19:30:01.749Z,103.55
2022-12-16T19:33:37.438Z,94.43
2022-12-16T19:37:07.830Z,97.15
2022-12-16T19:40:38.551Z,99.65
2022-12-16T19:44:08.594Z,98.78
2022-12-16T19:47:39.839Z,103.83
2022-12-16T19:51:11.790Z,99.78
2022-12-16T19:54:42.174Z,101.38
2022-12-16T19:58:12.668Z,100.23
2022-12-16T20:01:42.813Z,93.50
2022-12-16T20:05:13.287Z,91.00
2022-12-16T20:08:43.764Z,89.58
2022-12-16T20:12:14.028Z,90.08
2022-12-16T20:15:45.581Z,91.63
2022-12-16T20:19:19.129Z,95.73
2022-12-16T20:22:49.591Z,87.90
2022-12-16T20:26:22.487Z,85.30
2022-12-16T20:29:53.358Z,87.20
2022-12-16T20:33:23.835Z,80.78
2022-12-16T20:36:54.192Z,85.53
2022-12-16T20:40:31.649Z,78.38
2022-12-16T20:44:02.388Z,82.80
2022-12-16T20:47:35.442Z,81.20
2022-12-16T20:51:08.113Z,78.43
2022-12-16T20:54:38.421Z,81.75
2022-12-16T20:58:09.361Z,83.05
2022-12-16T21:01:47.923Z,78.65
2022-12-16T21:05:13.904Z,78.93
2022-12-16T21:08:44.617Z,80.40
2022-12-16T21:12:16.143Z,74.55
2022-12-16T21:15:46.640Z,77.38
2022-12-16T21:19:24.589Z,79.28
2022-12-16T21:22:55.474Z,81.47
2022-12-16T21:26:26.648Z,77.63
2022-12-16T21:29:56.955Z,76.00
2022-12-16T21:33:32.707Z,81.03
2022-12-16T21:37:02.886Z,80.50
2022-12-16T21:40:34.363Z,77.63
2022-12-16T21:44:04.469Z,76.83
2022-12-16T21:47:34.514Z,80.20
2022-12-16T21:51:05.320Z,78.20
2022-12-16T21:54:35.486Z,81.13
2022-12-16T21:58:07.916Z,79.58
2022-12-16T22:01:38.512Z,75.88
2022-12-16T22:05:08.914Z,80.80
2022-12-16T22:08:39.410Z,77.65
2022-12-16T22:12:09.987Z,78.00
2022-12-16T22:15:40.598Z,81.68
2022-12-16T22:19:12.380Z,79.23
2022-12-16T22:22:42.762Z,80.65
2022-12-16T22:26:28.088Z,74.83
2022-12-16T22:29:58.608Z,80.33
2022-12-16T22:33:28.176Z,78.90
2022-12-16T22:36:58.951Z,79.38
2022-12-16T22:40:31.764Z,78.98
2022-12-16T22:43:58.402Z,79.55
2022-12-16T22:47:29.111Z,82.33
2022-12-16T22:50:59.576Z,77.25
2022-12-16T22:54:29.848Z,82.98
2022-12-16T22:58:00.250Z,82.33
2022-12-16T23:01:31.816Z,80.08
2022-12-16T23:05:02.411Z,81.35
2022-12-16T23:08:33.117Z,79.85
2022-12-16T23:12:04.577Z,81.73
2022-12-16T23:15:36.828Z,82.03
2022-12-16T23:19:06.934Z,81.38
2022-12-16T23:22:37.123Z,78.83
2022-12-16T23:26:16.041Z,79.58
2022-12-16T23:29:46.220Z,86.55
2022-12-16T23:33:22.885Z,84.90
2022-12-16T23:36:53.424Z,86.73
2022-12-16T23:40:25.054Z,91.55
2022-12-16T23:43:55.673Z,87.25
2022-12-16T23:47:26.664Z,93.35
2022-12-16T23:50:56.909Z,91.93
2022-12-16T23:54:27.224Z,94.00
2022-12-16T23:57:59.101Z,90.53
